Skip Navigation Links
NOAA logo - Click to go to the NOAA homepage
NOAA's National Weather Service
Alaska Aviation Weather Unit
  NWS logo - Click to go to the NWS homepage
Left Navbar Graphic     12 AKDT = 20 GMT

   
NOAA is celebrating 200 years of science, service, and stewardship. Visit the NOAA 200th celebration Web site to learn more.
USA.gov is the U.S. Government's official Web portal to all Federal, state and local government Web resources and services.
Facebook
NWS on Facebook

Important Change Regarding the AAWU Web Presence

 

Over the last several months, the AAWU has been working to navigate its webpages to a nationally supported server. Security, as well as other needs, have necessitated the change.  We have been given an extension for the site changeover while we diligently work at addressing feedback received. As of July 14, 2017, aawu.arh.noaa.gov will be discontinued. The new AAWU web address is weather.gov/aawu. It is now live and will run in-parallel with the old site until it is discontinued on July 14, 2017. Please continue to send any feedback or questions regarding the new webpages to nws.ar.aawu.webauthors@noaa.gov.  Thank you for your patience during this time of transition.
AAWU Home :: Display TAF Add Bookmark
TAF CYEV 251838Z 2519/2607 30010G20KT P6SM SCT008 OVC030 TEMPO
     2519/2607 5SM -RA BR BKN008 OVC020
    RMK NXT FCST BY 260100Z=

METAR CYEV 251400Z 31005KT 10SM SCT009 OVC033 10/09 A2987 RMK ST4SC4 SLP121= SPECI CYEV 251411Z 31006KT 4SM BR BKN009 OVC030 10/09 A2987 RMK ST5SC3 SLP121= SPECI CYEV 251436Z 32006KT 6SM -RA BR BKN008 OVC015 10/09 A2988 RMK SC7SC1 SLP124= METAR CYEV 251500Z 31007KT 5SM -RA BR OVC008 10/09 A2989 RMK SC8 SLP126= METAR CYEV 251600Z 29008G15KT 10SM -RA BKN008 OVC015 10/09 A2990 RMK SC5SC3 SLP131= METAR CYEV 251700Z 30010KT 15SM -RA BKN008 OVC030 10/08 A2991 RMK SF5SC3 SLP133= SPECI CYEV 251705Z 30007KT 15SM SCT008 OVC030 10/08 A2991 RMK SF3SC5 SLP133= METAR CYEV 251800Z 30011G20KT 15SM SCT008 OVC030 10/07 A2992 RMK SF4SC4 SLP136= METAR CYEV 251900Z 31011G21KT 15SM SCT008 BKN030 11/07 A2993 RMK SF3SC2 SLP141= METAR CYEV 252000Z 30014G22KT 15SM FEW008 SCT036 BKN050 10/06 A2995 RMK SF2SC2SC2 SLP146=
 Alaska TAF Map

NOAA's National Weather Service
Alaska Aviation Weather Unit
6930 Sand Lake Road
Anchorage, AK 99502-1845
Disclaimer
Credits
Glossary
Privacy Policy
About Us
Career Opportunities
Contact AAWU Internet Services Site last modified: April, 17th 2012